WetterOnline ( https://www.wetteronline.at )

Wetter aktuell Leopoldsdorf

Aktuelles Wetter: Wien-Schwechat (190m)

6-stündlich | Neueste Meldungen
Ortszeit Temperatur Wetter
Di, 26.05. 2:00 11.2° C wolkig
Mo, 25.05. 20:00 14.1° C wolkig
Mo, 25.05. 14:00 16.1° C bewölkt
Mo, 25.05. 8:00 12.1° C leichter Regen
Mo, 25.05. 2:00 11.5° C leicht bewölkt
So, 24.05. 20:00 14.3° C leicht bewölkt
So, 24.05. 14:00 14.8° C wolkig
So, 24.05. 8:00 12.4° C bewölkt
Ortszeit Temperatur Wetter
Di, 26.05. 5:50 11° C bewölkt
Di, 26.05. 5:20 11° C bewölkt
Di, 26.05. 5:00 10.8° C bewölkt
Di, 26.05. 4:50 11° C bewölkt
Di, 26.05. 4:20 11° C bewölkt
Di, 26.05. 4:00 11.1° C leichte Schauer
Di, 26.05. 3:50 11° C leichte Schauer
Di, 26.05. 3:20 11° C leicht bewölkt
Di, 26.05. 3:00 11.2° C wolkig
Di, 26.05. 2:20 11° C leicht bewölkt
Ortszeit Relative Feuchte Sichtweite
Di, 26.05. 2:00 75% 60 km
Mo, 25.05. 20:00 57% 65 km
Mo, 25.05. 14:00 60% 55 km
Mo, 25.05. 8:00 84% 50 km
Mo, 25.05. 2:00 73% 50 km
So, 24.05. 20:00 57% 60 km
So, 24.05. 14:00 62% 40 km
So, 24.05. 8:00 70% 50 km
Ortszeit Relative Feuchte Sichtweite
Di, 26.05. 5:50 82% >10 km
Di, 26.05. 5:20 82% >10 km
Di, 26.05. 5:00 82% 55 km
Di, 26.05. 4:50 82% >10 km
Di, 26.05. 4:20 82% >10 km
Di, 26.05. 4:00 78% 12 km
Di, 26.05. 3:50 76% >10 km
Di, 26.05. 3:20 76% >10 km
Di, 26.05. 3:00 75% 60 km
Di, 26.05. 2:20 76% >10 km
Ortszeit Niederschlagsmenge Niederschlagsart
Di, 26.05. 2:00 keine Meldung -
Mo, 25.05. 20:00 3 l/m2 in 12 Std. -
Mo, 25.05. 14:00 2 l/m2 in 6 Std. -
Mo, 25.05. 8:00 2 l/m2 in 12 Std. -
Mo, 25.05. 2:00 0.2 l/m2 in 6 Std. -
So, 24.05. 20:00 2 l/m2 in 12 Std. -
So, 24.05. 14:00 2 l/m2 in 6 Std. -
So, 24.05. 8:00 38 l/m2 in 12 Std. -
Ortszeit Niederschlagsmenge Niederschlagsart
Di, 26.05. 5:50 keine Meldung -
Di, 26.05. 5:20 keine Meldung -
Di, 26.05. 5:00 0.3 l/m2 in 1 Std. -
Di, 26.05. 4:50 keine Meldung -
Di, 26.05. 4:20 keine Meldung -
Di, 26.05. 4:00 0.1 l/m2 in 1 Std. -
Di, 26.05. 3:50 keine Meldung -
Di, 26.05. 3:20 keine Meldung -
Di, 26.05. 3:00 0.0 l/m2 in 1 Std. -
Di, 26.05. 2:20 keine Meldung -
Ortszeit Stärke Spitze Richtung
km/h Bft. km/h Grad Sektor
Di, 26.05. 2:00 22 4 50 320° NW
Mo, 25.05. 20:00 29 5 54 330° NW
Mo, 25.05. 14:00 29 5 47 300° NW
Mo, 25.05. 8:00 22 4 - 290° W
Mo, 25.05. 2:00 14 3 54 280° W
So, 24.05. 20:00 25 4 68 280° W
So, 24.05. 14:00 36 5 61 260° W
So, 24.05. 8:00 36 5 65 300° NW
Ortszeit Stärke Spitze Richtung
km/h Bft. km/h Grad Sektor
Di, 26.05. 5:50 20 4 - 320° NW
Di, 26.05. 5:20 22 4 - 320° NW
Di, 26.05. 5:00 22 4 - 320° NW
Di, 26.05. 4:50 22 4 - 320° NW
Di, 26.05. 4:20 22 4 - 310° NW
Di, 26.05. 4:00 25 4 - 320° NW
Di, 26.05. 3:50 26 4 - 320° NW
Di, 26.05. 3:20 26 4 - 320° NW
Di, 26.05. 3:00 22 4 - 330° NW
Di, 26.05. 2:20 20 4 - 320° NW
Ortszeit Untergrenze Bedeckung Gattung
total tief tief mittel hoch
Di, 26.05. 2:00 1140 m 7/8 5/8 Sc Ac -
Mo, 25.05. 20:00 900 m 6/8 5/8 Cu Ac -
Mo, 25.05. 14:00 600 m 7/8 1/8 Cu - -
Mo, 25.05. 8:00 900 m 7/8 7/8 Cu - -
Mo, 25.05. 2:00 2700 m 3/8 3/8 - Ac -
So, 24.05. 20:00 1440 m 5/8 3/8 Cu Ac -
So, 24.05. 14:00 960 m 6/8 1/8 Cu - -
So, 24.05. 8:00 660 m 7/8 6/8 Cu - -
Ortszeit Bedeckungsgrad in Achtel und Wolkenuntergrenze
Di, 26.05. 5:50 1-2(750m) 5-7(1200m)
Di, 26.05. 5:20 1-2(900m) 5-7(1200m)
Di, 26.05. 5:00 1(900m) 7(1200m)
Di, 26.05. 4:50 1-2(900m) 5-7(1200m)
Di, 26.05. 4:20 1-2(900m) 5-7(1200m)
Di, 26.05. 4:00 1(900m) 6(1500m)
Di, 26.05. 3:50 1-2(900m) 5-7(1500m)
Di, 26.05. 3:20 3-4(1350m)
Di, 26.05. 3:00 1(660m) 3(1380m) 5(2400m)
Di, 26.05. 2:20 3-4(1380m)
Ortszeit Luftdruck NN (hPa) Tendenz (hPa in 3 Std.)
Di, 26.05. 2:00 1029 + 0,6
Mo, 25.05. 20:00 1026 + 0,7
Mo, 25.05. 14:00 1025 - 1,6
Mo, 25.05. 8:00 1027 + 0,2
Mo, 25.05. 2:00 1027 - 1,1
So, 24.05. 20:00 1027 + 0,7
So, 24.05. 14:00 1027 - 1,0
So, 24.05. 8:00 1027 + 2,2
Ortszeit Luftdruck NN (hPa) Tendenz (hPa in 3 Std.)
Di, 26.05. 5:50 1029 keine Meldung
Di, 26.05. 5:20 1029 keine Meldung
Di, 26.05. 5:00 1029 - 0,2
Di, 26.05. 4:50 1028 keine Meldung
Di, 26.05. 4:20 1028 keine Meldung
Di, 26.05. 4:00 1029 - 0,1
Di, 26.05. 3:50 1028 keine Meldung
Di, 26.05. 3:20 1028 keine Meldung
Di, 26.05. 3:00 1029 + 0,2
Di, 26.05. 2:20 1028 keine Meldung
Ortszeit Schneehöhe (cm)
Di, 26.05. 2:00 -
Mo, 25.05. 20:00 -
Mo, 25.05. 14:00 -
Mo, 25.05. 8:00 0
Mo, 25.05. 2:00 -
So, 24.05. 20:00 -
So, 24.05. 14:00 -
So, 24.05. 8:00 0
Ortszeit Schneehöhe (cm)
Di, 26.05. 5:50 -
Di, 26.05. 5:20 -
Di, 26.05. 5:00 -
Di, 26.05. 4:50 -
Di, 26.05. 4:20 -
Di, 26.05. 4:00 -
Di, 26.05. 3:50 -
Di, 26.05. 3:20 -
Di, 26.05. 3:00 -
Di, 26.05. 2:20 -
Link zu dieser Seite / Seite empfehlen

Das Wetter in ...